createdAt,value
2017-02-04T00:00:45.839Z,992.6
2017-02-04T00:01:50.064Z,992.57
2017-02-04T00:02:56.229Z,992.48
2017-02-04T00:04:02.403Z,992.45
2017-02-04T00:05:07.602Z,992.4
2017-02-04T00:06:13.850Z,992.4
2017-02-04T00:07:19.073Z,992.36
2017-02-04T00:08:23.275Z,992.36
2017-02-04T00:09:28.480Z,992.37
2017-02-04T00:10:33.692Z,992.39
2017-02-04T00:11:39.874Z,992.32
2017-02-04T00:12:46.050Z,992.34
2017-02-04T00:13:50.294Z,992.32
2017-02-04T00:14:56.564Z,992.23
2017-02-04T00:16:01.765Z,992.26
2017-02-04T00:17:06.945Z,992.23
2017-02-04T00:18:12.108Z,992.17
2017-02-04T00:19:17.300Z,992.23
2017-02-04T00:20:22.529Z,992.21
2017-02-04T00:21:26.742Z,992.23
2017-02-04T00:22:30.992Z,992.18
2017-02-04T00:23:36.157Z,992.24
2017-02-04T00:24:42.333Z,992.24
2017-02-04T00:25:48.547Z,992.23
2017-02-04T00:26:50.931Z,992.17
2017-02-04T00:27:54.161Z,992.23
2017-02-04T00:28:59.349Z,992.2
2017-02-04T00:30:03.573Z,992.18
2017-02-04T00:31:07.802Z,992.21
2017-02-04T00:32:13.977Z,992.18
2017-02-04T00:33:19.229Z,992.21
2017-02-04T00:34:23.470Z,992.26
2017-02-04T00:35:29.637Z,992.17
2017-02-04T00:36:34.852Z,992.14
2017-02-04T00:37:41.066Z,992.16
2017-02-04T00:38:47.208Z,992.14
2017-02-04T00:39:52.406Z,992.17
2017-02-04T00:40:57.606Z,992.16
2017-02-04T00:42:03.790Z,992.19
2017-02-04T00:43:09.971Z,992.18
2017-02-04T00:44:14.200Z,992.16
2017-02-04T00:45:19.401Z,992.14
2017-02-04T00:46:25.570Z,992.14
2017-02-04T00:47:31.740Z,992.11
2017-02-04T00:48:35.978Z,992.12
2017-02-04T00:49:41.156Z,992.13
2017-02-04T00:50:47.379Z,992.05
2017-02-04T00:51:53.508Z,992.05
2017-02-04T00:52:59.787Z,992.06
2017-02-04T00:54:04.995Z,992.08
2017-02-04T00:55:10.221Z,992.03
2017-02-04T00:56:16.382Z,992.02
2017-02-04T00:57:21.580Z,991.96
2017-02-04T00:58:26.785Z,991.98
2017-02-04T00:59:32.963Z,991.95
2017-02-04T01:00:38.172Z,991.95
2017-02-04T01:01:43.350Z,992
2017-02-04T01:02:48.555Z,991.98
2017-02-04T01:03:53.765Z,991.95
2017-02-04T01:04:59.937Z,991.95
2017-02-04T01:06:05.183Z,991.99
2017-02-04T01:07:10.408Z,991.99
2017-02-04T01:08:14.642Z,991.97
2017-02-04T01:09:20.927Z,991.98
2017-02-04T01:10:25.138Z,991.96
2017-02-04T01:11:30.336Z,991.96
2017-02-04T01:12:34.568Z,992
2017-02-04T01:13:40.727Z,991.99
2017-02-04T01:14:46.893Z,992.03
2017-02-04T01:15:53.053Z,991.97
2017-02-04T01:16:59.224Z,991.94
2017-02-04T01:18:04.420Z,991.95
2017-02-04T01:19:09.619Z,991.93
2017-02-04T01:20:14.831Z,992.02
2017-02-04T01:21:21.051Z,991.98
2017-02-04T01:22:26.258Z,991.93
2017-02-04T01:23:32.427Z,991.94
2017-02-04T01:24:38.598Z,991.99
2017-02-04T01:25:44.767Z,991.98
2017-02-04T01:26:49.979Z,991.96
2017-02-04T01:27:56.135Z,991.95
2017-02-04T01:29:01.353Z,991.93
2017-02-04T01:30:05.586Z,991.92
2017-02-04T01:31:10.780Z,991.97
2017-02-04T01:32:16.953Z,991.99
2017-02-04T01:33:23.121Z,991.94
2017-02-04T01:34:29.295Z,991.98
2017-02-04T01:35:34.498Z,992.04
2017-02-04T01:36:40.673Z,992.05
2017-02-04T01:37:45.857Z,992.04
2017-02-04T01:38:51.068Z,992.07
2017-02-04T01:39:57.234Z,992.07
2017-02-04T01:41:03.405Z,992.08
2017-02-04T01:42:09.584Z,992.09
2017-02-04T01:43:15.757Z,992.09
2017-02-04T01:44:20.930Z,992.14
2017-02-04T01:45:27.112Z,992.09
2017-02-04T01:46:33.279Z,992.13
2017-02-04T01:47:38.485Z,992.11
2017-02-04T01:48:42.778Z,992.11
2017-02-04T01:49:46.955Z,992.11
2017-02-04T01:50:53.152Z,992.04
2017-02-04T01:51:59.392Z,992.09
2017-02-04T01:53:05.561Z,992.03
2017-02-04T01:54:11.730Z,992.05
2017-02-04T01:55:16.907Z,992.05
2017-02-04T01:56:21.159Z,992.01
2017-02-04T01:57:26.356Z,992.04
2017-02-04T01:58:31.548Z,991.99
2017-02-04T01:59:37.730Z,992.04
2017-02-04T02:00:43.035Z,991.98
2017-02-04T02:01:48.247Z,992.02
2017-02-04T02:02:52.479Z,992.06
2017-02-04T02:03:58.644Z,992.1
2017-02-04T02:05:04.816Z,992.1
2017-02-04T02:06:10.015Z,992.08
2017-02-04T02:07:16.193Z,992.11
2017-02-04T02:08:22.364Z,992.09
2017-02-04T02:09:28.537Z,992.09
2017-02-04T02:10:33.713Z,992.05
2017-02-04T02:11:38.946Z,992.1
2017-02-04T02:12:45.181Z,992.13
2017-02-04T02:13:51.345Z,992.14
2017-02-04T02:14:57.506Z,992.08
2017-02-04T02:16:02.722Z,992.07
2017-02-04T02:17:07.918Z,992.1
2017-02-04T02:18:13.087Z,992.03
2017-02-04T02:19:17.321Z,992.05
2017-02-04T02:20:21.569Z,992.07
2017-02-04T02:21:26.733Z,992.02
2017-02-04T02:22:32.993Z,992.07
2017-02-04T02:23:37.152Z,992.03
2017-02-04T02:24:42.397Z,992.08
2017-02-04T02:25:48.565Z,992.1
2017-02-04T02:26:54.757Z,992.07
2017-02-04T02:27:59.936Z,992.05
2017-02-04T02:29:05.182Z,992.11
2017-02-04T02:30:10.344Z,992.12
2017-02-04T02:31:15.541Z,992.09
2017-02-04T02:32:21.711Z,992.16
2017-02-04T02:33:27.018Z,992.16
2017-02-04T02:34:32.318Z,992.12
2017-02-04T02:35:38.485Z,992.14
2017-02-04T02:36:44.695Z,992.16
2017-02-04T02:37:48.889Z,992.18
2017-02-04T02:38:54.087Z,992.15
2017-02-04T02:39:59.295Z,992.15
2017-02-04T02:41:04.637Z,992.15
2017-02-04T02:42:09.865Z,992.16
2017-02-04T02:43:15.063Z,992.2
2017-02-04T02:44:21.341Z,992.14
2017-02-04T02:45:27.517Z,992.18
2017-02-04T02:46:31.751Z,992.16
2017-02-04T02:47:38.119Z,992.19
2017-02-04T02:48:44.296Z,992.18
2017-02-04T02:49:48.531Z,992.21
2017-02-04T02:50:54.812Z,992.24
2017-02-04T02:51:59.016Z,992.3
2017-02-04T02:53:04.217Z,992.34
2017-02-04T02:54:10.385Z,992.28
2017-02-04T02:55:14.626Z,992.3
2017-02-04T02:56:20.792Z,992.29
2017-02-04T02:57:25.031Z,992.34
2017-02-04T02:58:30.233Z,992.34
2017-02-04T02:59:36.400Z,992.33
2017-02-04T03:00:40.610Z,992.32
2017-02-04T03:01:44.895Z,992.32
2017-02-04T03:02:50.106Z,992.27
2017-02-04T03:03:55.306Z,992.31
2017-02-04T03:05:01.468Z,992.36
2017-02-04T03:06:05.695Z,992.36
2017-02-04T03:07:11.857Z,992.37
2017-02-04T03:08:16.093Z,992.35
2017-02-04T03:09:22.252Z,992.38
2017-02-04T03:10:28.460Z,992.45
2017-02-04T03:11:33.660Z,992.42
2017-02-04T03:12:37.876Z,992.43
2017-02-04T03:13:43.078Z,992.46
2017-02-04T03:14:49.260Z,992.47
2017-02-04T03:15:53.491Z,992.44
2017-02-04T03:16:58.691Z,992.45
2017-02-04T03:18:04.856Z,992.42
2017-02-04T03:19:11.065Z,992.49
2017-02-04T03:20:16.265Z,992.45
2017-02-04T03:21:21.471Z,992.46
2017-02-04T03:22:25.711Z,992.48
2017-02-04T03:23:31.896Z,992.48
2017-02-04T03:24:38.060Z,992.48
2017-02-04T03:25:43.366Z,992.44
2017-02-04T03:26:49.543Z,992.52
2017-02-04T03:27:54.747Z,992.57
2017-02-04T03:29:00.915Z,992.47
2017-02-04T03:30:05.151Z,992.45
2017-02-04T03:31:11.324Z,992.45
2017-02-04T03:32:17.533Z,992.51
2017-02-04T03:33:22.695Z,992.52
2017-02-04T03:34:26.900Z,992.52
2017-02-04T03:35:32.158Z,992.58
2017-02-04T03:36:36.367Z,992.55
2017-02-04T03:37:40.569Z,992.53
2017-02-04T03:38:45.771Z,992.55
2017-02-04T03:39:50.991Z,992.53
2017-02-04T03:40:57.107Z,992.45
2017-02-04T03:42:01.343Z,992.52
2017-02-04T03:43:06.577Z,992.6
2017-02-04T03:44:12.708Z,992.58
2017-02-04T03:45:17.894Z,992.56
2017-02-04T03:46:22.124Z,992.57
2017-02-04T03:47:28.299Z,992.55
2017-02-04T03:48:33.497Z,992.63
2017-02-04T03:49:39.663Z,992.62
2017-02-04T03:50:44.907Z,992.63
2017-02-04T03:51:50.109Z,992.65
2017-02-04T03:52:55.280Z,992.67
2017-02-04T03:53:59.507Z,992.68
2017-02-04T03:55:05.668Z,992.62
2017-02-04T03:56:11.839Z,992.62
2017-02-04T03:57:18.006Z,992.65
2017-02-04T03:58:24.171Z,992.66
2017-02-04T03:59:30.341Z,992.66
2017-02-04T04:00:36.509Z,992.7
2017-02-04T04:01:42.704Z,992.71
2017-02-04T04:02:47.889Z,992.76
2017-02-04T04:03:53.149Z,992.74
2017-02-04T04:04:59.319Z,992.79
2017-02-04T04:06:04.512Z,992.8
2017-02-04T04:07:09.813Z,992.85
2017-02-04T04:08:14.087Z,992.84
2017-02-04T04:09:18.336Z,992.84
2017-02-04T04:10:22.530Z,992.83
2017-02-04T04:11:28.738Z,992.84
2017-02-04T04:12:33.929Z,992.83
2017-02-04T04:13:40.109Z,992.83
2017-02-04T04:14:46.353Z,992.81
2017-02-04T04:15:52.538Z,992.8
2017-02-04T04:16:57.746Z,992.85
2017-02-04T04:18:02.944Z,992.81
2017-02-04T04:19:08.146Z,992.84
2017-02-04T04:20:14.303Z,992.82
2017-02-04T04:21:20.633Z,992.84
2017-02-04T04:22:25.964Z,992.85
2017-02-04T04:23:30.170Z,992.86
2017-02-04T04:24:35.384Z,992.87
2017-02-04T04:25:40.584Z,992.86
2017-02-04T04:26:46.753Z,992.88
2017-02-04T04:27:50.950Z,992.87
2017-02-04T04:28:56.174Z,992.89
2017-02-04T04:30:00.383Z,992.94
2017-02-04T04:31:05.584Z,992.95
2017-02-04T04:32:10.787Z,992.94
2017-02-04T04:33:16.977Z,992.93
2017-02-04T04:34:23.133Z,992.93
2017-02-04T04:35:29.304Z,992.96
2017-02-04T04:36:34.513Z,993
2017-02-04T04:37:38.734Z,992.99
2017-02-04T04:38:44.902Z,993.09
2017-02-04T04:39:50.108Z,993.06
2017-02-04T04:40:55.310Z,993.11
2017-02-04T04:41:59.539Z,993.12
2017-02-04T04:43:05.704Z,993.15
2017-02-04T04:44:10.904Z,993.16
2017-02-04T04:45:17.130Z,993.22
2017-02-04T04:46:22.305Z,993.21
2017-02-04T04:47:27.506Z,993.22
2017-02-04T04:48:32.708Z,993.2
2017-02-04T04:49:38.879Z,993.25
2017-02-04T04:50:44.072Z,993.29
2017-02-04T04:51:50.248Z,993.31
2017-02-04T04:52:56.416Z,993.28
2017-02-04T04:53:59.645Z,993.35
2017-02-04T04:55:03.877Z,993.32
2017-02-04T04:56:10.096Z,993.34
2017-02-04T04:57:15.331Z,993.34
2017-02-04T04:58:21.518Z,993.4
2017-02-04T04:59:27.673Z,993.39
2017-02-04T05:00:31.905Z,993.38
2017-02-04T05:01:37.077Z,993.39
2017-02-04T05:02:41.311Z,993.41
2017-02-04T05:03:46.526Z,993.41
2017-02-04T05:04:51.730Z,993.44
2017-02-04T05:05:57.903Z,993.45
2017-02-04T05:07:03.107Z,993.4
2017-02-04T05:08:06.454Z,993.48
2017-02-04T05:09:10.727Z,993.44
2017-02-04T05:10:15.897Z,993.4
2017-02-04T05:11:19.163Z,993.43
2017-02-04T05:12:23.408Z,993.43
2017-02-04T05:14:34.772Z,993.44
2017-02-04T05:15:40.941Z,993.49
2017-02-04T05:16:45.171Z,993.47
2017-02-04T05:17:51.334Z,993.52
2017-02-04T05:18:56.508Z,993.52
2017-02-04T05:20:01.734Z,993.48
2017-02-04T05:21:06.907Z,993.52
2017-02-04T05:22:12.081Z,993.54
2017-02-04T05:23:17.281Z,993.54
2017-02-04T05:24:22.453Z,993.53
2017-02-04T05:25:27.623Z,993.55
2017-02-04T05:26:31.853Z,993.53
2017-02-04T05:27:38.035Z,993.53
2017-02-04T05:28:44.252Z,993.55
2017-02-04T05:29:50.435Z,993.58
2017-02-04T05:30:54.663Z,993.6
2017-02-04T05:31:59.843Z,993.67
2017-02-04T05:33:05.012Z,993.71
2017-02-04T05:34:10.217Z,993.68
2017-02-04T05:35:16.401Z,993.73
2017-02-04T05:36:21.593Z,993.77
2017-02-04T05:37:25.831Z,993.81
2017-02-04T05:38:31.255Z,993.81
2017-02-04T05:39:37.413Z,993.82
2017-02-04T05:40:42.608Z,993.85
2017-02-04T05:41:47.826Z,993.87
2017-02-04T05:42:53.998Z,993.85
2017-02-04T05:44:00.168Z,993.86
2017-02-04T05:45:06.342Z,993.92
2017-02-04T05:46:11.511Z,993.9
2017-02-04T05:47:15.752Z,993.93
2017-02-04T05:48:21.013Z,993.93
2017-02-04T05:49:25.244Z,993.97
2017-02-04T05:50:30.449Z,993.99
2017-02-04T05:51:35.705Z,993.97
2017-02-04T05:52:41.831Z,994.01
2017-02-04T05:53:47.993Z,994.02
2017-02-04T05:54:53.213Z,994.07
2017-02-04T05:55:58.387Z,994.02
2017-02-04T05:57:04.553Z,994.06
2017-02-04T05:58:08.800Z,994.04
2017-02-04T05:59:13.994Z,994.06
2017-02-04T06:00:19.203Z,994.12
2017-02-04T06:01:25.373Z,994.15
2017-02-04T06:02:30.547Z,994.19
2017-02-04T06:03:36.727Z,994.17
2017-02-04T06:04:39.992Z,994.19
2017-02-04T06:05:45.188Z,994.2
2017-02-04T06:06:51.352Z,994.18
2017-02-04T06:07:55.559Z,994.26
2017-02-04T06:09:01.724Z,994.17
2017-02-04T06:10:05.952Z,994.19
2017-02-04T06:11:12.124Z,994.16
2017-02-04T06:12:17.318Z,994.19
2017-02-04T06:13:21.532Z,994.15
2017-02-04T06:14:27.695Z,994.17
2017-02-04T06:15:32.892Z,994.16
2017-02-04T06:16:36.121Z,994.2
2017-02-04T06:17:42.291Z,994.25
2017-02-04T06:18:45.524Z,994.23
2017-02-04T06:19:50.723Z,994.26
2017-02-04T06:20:55.927Z,994.27
2017-02-04T06:22:02.100Z,994.27
2017-02-04T06:23:08.265Z,994.28
2017-02-04T06:24:14.435Z,994.28
2017-02-04T06:25:18.641Z,994.25
2017-02-04T06:26:24.814Z,994.25
2017-02-04T06:27:30.007Z,994.22
2017-02-04T06:28:35.219Z,994.21
2017-02-04T06:29:41.388Z,994.2
2017-02-04T06:30:46.580Z,994.19
2017-02-04T06:31:50.877Z,994.18
2017-02-04T06:32:54.152Z,994.17
2017-02-04T06:33:59.407Z,994.16
2017-02-04T06:35:04.580Z,994.21
2017-02-04T06:36:10.855Z,994.26
2017-02-04T06:37:13.998Z,994.17
2017-02-04T06:38:19.207Z,994.18
2017-02-04T06:39:24.408Z,994.18
2017-02-04T06:40:27.650Z,994.14
2017-02-04T06:41:33.814Z,994.21
2017-02-04T06:42:39.995Z,994.19
2017-02-04T06:43:46.152Z,994.19
2017-02-04T06:44:52.337Z,994.18
2017-02-04T06:45:57.546Z,994.2
2017-02-04T06:47:02.863Z,994.16
2017-02-04T06:48:08.024Z,994.2
2017-02-04T06:49:14.185Z,994.2
2017-02-04T06:50:19.353Z,994.23
2017-02-04T06:51:24.553Z,994.18
2017-02-04T06:52:30.719Z,994.19
2017-02-04T06:53:35.961Z,994.17
2017-02-04T06:54:40.134Z,994.2
2017-02-04T06:55:45.333Z,994.21
2017-02-04T06:56:50.540Z,994.22
2017-02-04T06:57:56.709Z,994.23
2017-02-04T06:59:01.978Z,994.23
2017-02-04T07:00:07.182Z,994.28
2017-02-04T07:01:13.372Z,994.28
2017-02-04T07:03:24.721Z,994.26
2017-02-04T07:04:30.890Z,994.26
2017-02-04T07:05:37.059Z,994.22
2017-02-04T07:06:42.269Z,994.21
2017-02-04T07:07:48.442Z,994.17
2017-02-04T07:08:52.721Z,994.22
2017-02-04T07:09:57.883Z,994.24
2017-02-04T07:11:03.076Z,994.21
2017-02-04T07:12:07.275Z,994.22
2017-02-04T07:13:13.440Z,994.24
2017-02-04T07:14:17.674Z,994.27
2017-02-04T07:15:23.828Z,994.21
2017-02-04T07:16:30.017Z,994.21
2017-02-04T07:17:35.224Z,994.21
2017-02-04T07:18:41.405Z,994.2
2017-02-04T07:19:47.567Z,994.26
2017-02-04T07:20:50.941Z,994.25
2017-02-04T07:21:57.078Z,994.25
2017-02-04T07:23:03.284Z,994.28
2017-02-04T07:24:09.492Z,994.34
2017-02-04T07:25:14.676Z,994.36
2017-02-04T07:26:18.937Z,994.41
2017-02-04T07:27:22.178Z,994.43
2017-02-04T07:28:27.487Z,994.4
2017-02-04T07:29:32.588Z,994.39
2017-02-04T07:30:36.797Z,994.38
2017-02-04T07:31:41.988Z,994.35
2017-02-04T07:32:48.254Z,994.35
2017-02-04T07:33:54.423Z,994.33
2017-02-04T07:35:00.585Z,994.31
2017-02-04T07:36:06.759Z,994.29
2017-02-04T07:37:10.973Z,994.28
2017-02-04T07:38:16.172Z,994.27
2017-02-04T07:39:21.375Z,994.33
2017-02-04T07:40:24.698Z,994.38
2017-02-04T07:41:29.842Z,994.42
2017-02-04T07:42:36.012Z,994.42
2017-02-04T07:43:42.225Z,994.45
2017-02-04T07:44:48.376Z,994.46
2017-02-04T07:45:53.589Z,994.47
2017-02-04T07:46:59.760Z,994.48
2017-02-04T07:48:04.972Z,994.47
2017-02-04T07:49:11.128Z,994.48
2017-02-04T07:50:15.371Z,994.53
2017-02-04T07:51:20.563Z,994.51
2017-02-04T07:52:26.790Z,994.54
2017-02-04T07:53:31.993Z,994.52
2017-02-04T07:54:37.239Z,994.52
2017-02-04T07:55:43.407Z,994.51
2017-02-04T07:56:49.567Z,994.48
2017-02-04T07:57:55.735Z,994.49
2017-02-04T07:59:00.951Z,994.52
2017-02-04T08:00:07.123Z,994.45
2017-02-04T08:01:13.418Z,994.45
2017-02-04T08:02:17.562Z,994.45
2017-02-04T08:03:23.744Z,994.46
2017-02-04T08:04:30.001Z,994.48
2017-02-04T08:05:35.199Z,994.49
2017-02-04T08:06:39.520Z,994.45
2017-02-04T08:07:45.689Z,994.43
2017-02-04T08:08:50.875Z,994.44
2017-02-04T08:09:56.076Z,994.42
2017-02-04T08:11:02.264Z,994.43
2017-02-04T08:12:07.481Z,994.4
2017-02-04T08:13:13.651Z,994.43
2017-02-04T08:14:19.831Z,994.43
2017-02-04T08:15:25.066Z,994.46
2017-02-04T08:16:30.254Z,994.48
2017-02-04T08:17:35.435Z,994.48
2017-02-04T08:18:40.762Z,994.49
2017-02-04T08:19:46.005Z,994.49
2017-02-04T08:20:52.240Z,994.48
2017-02-04T08:21:56.478Z,994.48
2017-02-04T08:23:00.709Z,994.5
2017-02-04T08:24:04.947Z,994.45
2017-02-04T08:25:09.171Z,994.46
2017-02-04T08:26:15.431Z,994.45
2017-02-04T08:27:21.604Z,994.42
2017-02-04T08:28:25.867Z,994.41
2017-02-04T08:29:31.092Z,994.43
2017-02-04T08:30:37.322Z,994.43
2017-02-04T08:31:42.451Z,994.43
2017-02-04T08:32:48.639Z,994.4
2017-02-04T08:33:53.851Z,994.39
2017-02-04T08:34:59.118Z,994.37
2017-02-04T08:36:05.293Z,994.37
2017-02-04T08:37:11.546Z,994.35
2017-02-04T08:38:16.725Z,994.28
2017-02-04T08:39:21.908Z,994.27
2017-02-04T08:40:28.099Z,994.24
2017-02-04T08:41:32.368Z,994.28
2017-02-04T08:42:38.754Z,994.31
2017-02-04T08:43:44.920Z,994.34
2017-02-04T08:44:50.128Z,994.37
2017-02-04T08:45:56.308Z,994.29
2017-02-04T08:47:02.483Z,994.27
2017-02-04T08:48:08.699Z,994.26
2017-02-04T08:49:13.903Z,994.26
2017-02-04T08:50:19.135Z,994.26
2017-02-04T08:51:24.316Z,994.33
2017-02-04T08:52:30.495Z,994.3
2017-02-04T08:53:35.701Z,994.34
2017-02-04T08:54:40.915Z,994.33
2017-02-04T08:55:45.164Z,994.35
2017-02-04T08:56:50.382Z,994.36
2017-02-04T08:57:56.565Z,994.35
2017-02-04T08:59:01.771Z,994.38
2017-02-04T09:00:07.948Z,994.3
2017-02-04T09:01:12.171Z,994.35
2017-02-04T09:02:17.422Z,994.35
2017-02-04T09:03:22.610Z,994.32
2017-02-04T09:04:27.814Z,994.31
2017-02-04T09:05:33.993Z,994.24
2017-02-04T09:06:39.200Z,994.29
2017-02-04T09:07:41.512Z,994.21
2017-02-04T09:08:46.767Z,994.25
2017-02-04T09:09:52.905Z,994.22
2017-02-04T09:10:58.126Z,994.17
2017-02-04T09:12:04.306Z,994.16
2017-02-04T09:13:09.615Z,994.12
2017-02-04T09:14:13.768Z,994.08
2017-02-04T09:15:18.075Z,994.01
2017-02-04T09:16:24.376Z,993.94
2017-02-04T09:17:30.566Z,993.87
2017-02-04T09:18:36.755Z,993.85
2017-02-04T09:19:41.966Z,993.87
2017-02-04T09:20:47.190Z,993.82
2017-02-04T09:21:53.367Z,993.8
2017-02-04T09:24:05.871Z,993.8
2017-02-04T09:25:11.075Z,993.8
2017-02-04T09:26:16.291Z,993.83
2017-02-04T09:27:21.496Z,993.94
2017-02-04T09:28:25.777Z,993.87
2017-02-04T09:29:32.131Z,993.86
2017-02-04T09:30:38.322Z,993.92
2017-02-04T09:31:44.492Z,993.85
2017-02-04T09:32:50.769Z,993.86
2017-02-04T09:33:56.063Z,993.8
2017-02-04T09:35:02.211Z,993.8
2017-02-04T09:36:08.378Z,993.82
2017-02-04T09:37:14.555Z,993.86
2017-02-04T09:38:20.746Z,993.86
2017-02-04T09:39:26.928Z,993.89
2017-02-04T09:40:32.147Z,993.95
2017-02-04T09:41:38.321Z,993.94
2017-02-04T09:42:43.580Z,993.91
2017-02-04T09:43:49.743Z,993.93
2017-02-04T09:44:54.966Z,993.89
2017-02-04T09:46:01.142Z,993.88
2017-02-04T09:47:07.321Z,993.89
2017-02-04T09:48:12.524Z,993.85
2017-02-04T09:49:18.721Z,993.82
2017-02-04T09:50:24.904Z,993.86
2017-02-04T09:51:30.079Z,993.84
2017-02-04T09:52:36.246Z,993.83
2017-02-04T09:53:41.472Z,993.81
2017-02-04T09:54:46.872Z,993.8
2017-02-04T09:55:52.136Z,993.78
2017-02-04T09:56:57.307Z,993.84
2017-02-04T09:58:02.522Z,993.81
2017-02-04T09:59:08.701Z,993.78
2017-02-04T10:00:14.875Z,993.77
2017-02-04T10:01:20.094Z,993.81
2017-02-04T10:02:26.318Z,993.82
2017-02-04T10:03:31.494Z,993.8
2017-02-04T10:04:37.667Z,993.78
2017-02-04T10:05:43.913Z,993.81
2017-02-04T10:06:50.094Z,993.79
2017-02-04T10:07:56.265Z,993.71
2017-02-04T10:09:01.481Z,993.7
2017-02-04T10:10:07.646Z,993.71
2017-02-04T10:11:12.915Z,993.72
2017-02-04T10:12:19.081Z,993.63
2017-02-04T10:13:23.373Z,993.68
2017-02-04T10:14:28.546Z,993.63
2017-02-04T10:15:34.774Z,993.6
2017-02-04T10:16:39.971Z,993.58
2017-02-04T10:17:45.191Z,993.57
2017-02-04T10:18:51.458Z,993.58
2017-02-04T10:19:53.741Z,993.49
2017-02-04T10:20:59.919Z,993.51
2017-02-04T10:22:06.103Z,993.48
2017-02-04T10:23:12.281Z,993.47
2017-02-04T10:24:17.489Z,993.39
2017-02-04T10:25:23.667Z,993.38
2017-02-04T10:26:28.864Z,993.37
2017-02-04T10:27:34.074Z,993.33
2017-02-04T10:28:38.289Z,993.24
2017-02-04T10:29:43.601Z,993.34
2017-02-04T10:30:49.782Z,993.28
2017-02-04T10:31:55.970Z,993.27
2017-02-04T10:33:02.143Z,993.27
2017-02-04T10:34:07.391Z,993.29
2017-02-04T10:35:13.529Z,993.22
2017-02-04T10:36:18.730Z,993.2
2017-02-04T10:37:23.941Z,993.18
2017-02-04T10:38:29.190Z,993.16
2017-02-04T10:39:35.379Z,993.17
2017-02-04T10:40:41.555Z,993.09
2017-02-04T10:41:46.739Z,993.13
2017-02-04T10:42:52.922Z,993.09
2017-02-04T10:43:57.219Z,993.07
2017-02-04T10:45:03.529Z,993.14
2017-02-04T10:46:08.748Z,993.05
2017-02-04T10:47:14.072Z,992.99
2017-02-04T10:48:19.361Z,992.98
2017-02-04T10:49:22.609Z,992.95
2017-02-04T10:50:27.902Z,992.92
2017-02-04T10:51:34.062Z,992.91
2017-02-04T10:52:40.228Z,992.83
2017-02-04T10:53:46.414Z,992.81
2017-02-04T10:54:51.627Z,992.8
2017-02-04T10:55:56.908Z,992.82
2017-02-04T10:57:02.122Z,992.85
2017-02-04T10:58:07.349Z,992.75
2017-02-04T10:59:12.553Z,992.69
2017-02-04T11:00:18.727Z,992.68
2017-02-04T11:01:24.904Z,992.66
2017-02-04T11:02:30.079Z,992.64
2017-02-04T11:03:35.305Z,992.64
2017-02-04T11:04:41.571Z,992.7
2017-02-04T11:05:46.794Z,992.72
2017-02-04T11:06:52.014Z,992.79
2017-02-04T11:07:57.230Z,992.78
2017-02-04T11:09:00.658Z,992.78
2017-02-04T11:10:05.868Z,992.67
2017-02-04T11:11:12.038Z,992.61
2017-02-04T11:12:18.244Z,992.62
2017-02-04T11:13:23.465Z,992.61
2017-02-04T11:14:28.642Z,992.62
2017-02-04T11:15:33.855Z,992.62
2017-02-04T11:16:40.062Z,992.51
2017-02-04T11:17:46.244Z,992.53
2017-02-04T11:18:52.496Z,992.56
2017-02-04T11:19:57.705Z,992.53
2017-02-04T11:21:02.915Z,992.56
2017-02-04T11:22:08.118Z,992.52
2017-02-04T11:23:13.364Z,992.56
2017-02-04T11:24:17.571Z,992.48
2017-02-04T11:25:22.784Z,992.51
2017-02-04T11:26:28.954Z,992.53
2017-02-04T11:27:34.137Z,992.53
2017-02-04T11:28:40.315Z,992.52
2017-02-04T11:29:45.521Z,992.51
2017-02-04T11:30:51.701Z,992.52
2017-02-04T11:31:56.902Z,992.58
2017-02-04T11:33:01.116Z,992.56
2017-02-04T11:34:07.304Z,992.6
2017-02-04T11:35:13.470Z,992.56
2017-02-04T11:36:18.710Z,992.57
2017-02-04T11:37:23.914Z,992.54
2017-02-04T11:38:29.214Z,992.6
2017-02-04T11:39:34.423Z,992.6
2017-02-04T11:40:40.594Z,992.58
2017-02-04T11:41:46.775Z,992.57
2017-02-04T11:42:51.982Z,992.5
2017-02-04T11:43:58.172Z,992.49
2017-02-04T11:45:02.418Z,992.5
2017-02-04T11:46:07.628Z,992.51
2017-02-04T11:47:13.804Z,992.48
2017-02-04T11:48:19.995Z,992.51
2017-02-04T11:49:25.180Z,992.47
2017-02-04T11:50:31.346Z,992.52
2017-02-04T11:51:36.550Z,992.47
2017-02-04T11:52:42.819Z,992.45
2017-02-04T11:53:48.017Z,992.42
2017-02-04T11:54:54.185Z,992.41
2017-02-04T11:55:59.396Z,992.4
2017-02-04T11:57:04.612Z,992.39
2017-02-04T11:58:09.835Z,992.41
2017-02-04T11:59:16.005Z,992.46
2017-02-04T12:00:20.327Z,992.47
2017-02-04T12:01:26.500Z,992.49
2017-02-04T12:02:32.682Z,992.49
2017-02-04T12:03:37.890Z,992.51
2017-02-04T12:04:43.115Z,992.5
2017-02-04T12:05:49.290Z,992.5
2017-02-04T12:06:54.500Z,992.5
2017-02-04T12:08:00.674Z,992.5
2017-02-04T12:09:05.927Z,992.51
2017-02-04T12:10:11.091Z,992.49
2017-02-04T12:11:17.271Z,992.49
2017-02-04T12:12:23.528Z,992.5
2017-02-04T12:13:29.729Z,992.54
2017-02-04T12:14:33.046Z,992.49
2017-02-04T12:15:39.217Z,992.5
2017-02-04T12:16:43.573Z,992.48
2017-02-04T12:17:49.707Z,992.48
2017-02-04T12:18:55.879Z,992.5
2017-02-04T12:20:02.152Z,992.48
2017-02-04T12:21:08.327Z,992.57
2017-02-04T12:22:12.622Z,992.54
2017-02-04T12:23:18.827Z,992.56
2017-02-04T12:24:25.000Z,992.56
2017-02-04T12:25:29.241Z,992.56
2017-02-04T12:26:33.478Z,992.58
2017-02-04T12:27:39.686Z,992.57
2017-02-04T12:28:45.827Z,992.59
2017-02-04T12:29:52.006Z,992.68
2017-02-04T12:30:56.235Z,992.59
2017-02-04T12:32:02.414Z,992.6
2017-02-04T12:33:08.581Z,992.54
2017-02-04T12:34:14.761Z,992.48
2017-02-04T12:35:18.972Z,992.54
2017-02-04T12:36:24.249Z,992.51
2017-02-04T12:37:30.417Z,992.59
2017-02-04T12:38:36.589Z,992.49
2017-02-04T12:39:41.814Z,992.5
2017-02-04T12:40:47.997Z,992.53
2017-02-04T12:41:52.245Z,992.47
2017-02-04T12:42:57.445Z,992.48
2017-02-04T12:44:03.693Z,992.47
2017-02-04T12:46:14.100Z,992.48
2017-02-04T12:47:19.302Z,992.47
2017-02-04T12:48:24.505Z,992.43
2017-02-04T12:49:29.727Z,992.43
2017-02-04T12:50:35.900Z,992.34
2017-02-04T12:51:40.109Z,992.42
2017-02-04T12:52:45.307Z,992.41
2017-02-04T12:53:49.523Z,992.41
2017-02-04T12:54:53.724Z,992.42
2017-02-04T12:55:59.896Z,992.41
2017-02-04T12:57:06.065Z,992.38
2017-02-04T12:58:10.299Z,992.36
2017-02-04T12:59:14.528Z,992.38
2017-02-04T13:00:20.708Z,992.31
2017-02-04T13:01:25.901Z,992.38
2017-02-04T13:02:31.114Z,992.3
2017-02-04T13:03:37.315Z,992.32
2017-02-04T13:04:43.604Z,992.31
2017-02-04T13:05:47.742Z,992.34
2017-02-04T13:06:52.908Z,992.41
2017-02-04T13:07:58.093Z,992.33
2017-02-04T13:09:04.263Z,992.34
2017-02-04T13:10:09.470Z,992.31
2017-02-04T13:11:15.647Z,992.28
2017-02-04T13:12:21.816Z,992.22
2017-02-04T13:13:26.999Z,992.23
2017-02-04T13:14:33.180Z,992.17
2017-02-04T13:15:39.394Z,992.18
2017-02-04T13:16:45.642Z,992.19
2017-02-04T13:17:50.843Z,992.2
2017-02-04T13:18:55.019Z,992.2
2017-02-04T13:20:00.225Z,992.19
2017-02-04T13:21:06.400Z,992.19
2017-02-04T13:22:11.610Z,992.21
2017-02-04T13:23:16.830Z,992.24
2017-02-04T13:24:22.027Z,992.22
2017-02-04T13:25:27.208Z,992.2
2017-02-04T13:26:32.425Z,992.22
2017-02-04T13:27:38.568Z,992.18
2017-02-04T13:28:43.781Z,992.22
2017-02-04T13:29:49.961Z,992.2
2017-02-04T13:30:56.141Z,992.17
2017-02-04T13:32:00.380Z,992.23
2017-02-04T13:33:05.569Z,992.26
2017-02-04T13:34:11.753Z,992.23
2017-02-04T13:35:15.975Z,992.2
2017-02-04T13:36:22.154Z,992.21
2017-02-04T13:37:28.355Z,992.19
2017-02-04T13:38:33.531Z,992.13
2017-02-04T13:39:38.756Z,992.19
2017-02-04T13:40:44.941Z,992.26
2017-02-04T13:41:51.133Z,992.22
2017-02-04T13:42:55.351Z,992.26